createdAt,value
2018-04-24T00:00:10.581Z,62.35
2018-04-24T00:02:38.112Z,60.67
2018-04-24T00:05:05.628Z,60.35
2018-04-24T00:07:33.159Z,60.40
2018-04-24T00:10:00.691Z,61.25
2018-04-24T00:12:28.282Z,60.99
2018-04-24T00:14:55.841Z,60.39
2018-04-24T00:17:23.365Z,60.86
2018-04-24T00:19:50.882Z,60.50
2018-04-24T00:22:18.416Z,60.84
2018-04-24T00:24:45.944Z,63.26
2018-04-24T00:27:13.459Z,62.09
2018-04-24T00:29:40.990Z,63.61
2018-04-24T00:32:08.559Z,62.06
2018-04-24T00:34:36.115Z,61.29
2018-04-24T00:37:03.631Z,61.66
2018-04-24T00:39:31.167Z,62.55
2018-04-24T00:41:58.680Z,61.85
2018-04-24T00:44:26.211Z,61.67
2018-04-24T00:46:53.745Z,61.46
2018-04-24T00:49:21.272Z,61.43
2018-04-24T00:51:48.795Z,62.33
2018-04-24T00:54:16.317Z,62.43
2018-04-24T00:56:43.832Z,61.74
2018-04-24T00:59:11.373Z,62.13
2018-04-24T01:01:38.896Z,64.06
2018-04-24T01:04:06.513Z,61.83
2018-04-24T01:06:34.087Z,61.88
2018-04-24T01:09:01.604Z,62.20
2018-04-24T01:11:29.208Z,61.62
2018-04-24T01:13:56.724Z,61.91
2018-04-24T01:16:24.334Z,62.12
2018-04-24T01:18:51.886Z,62.98
2018-04-24T01:21:19.413Z,62.47
2018-04-24T01:23:46.936Z,61.99
2018-04-24T01:26:14.461Z,62.49
2018-04-24T01:28:41.975Z,62.60
2018-04-24T01:31:09.504Z,62.71
2018-04-24T01:33:37.146Z,62.96
2018-04-24T01:36:04.671Z,63.69
2018-04-24T01:38:32.267Z,62.69
2018-04-24T01:40:59.791Z,62.93
2018-04-24T01:43:42.545Z,63.11
2018-04-24T01:46:10.071Z,63.95
2018-04-24T01:48:37.594Z,63.15
2018-04-24T01:51:05.152Z,63.39
2018-04-24T01:53:32.675Z,63.87
2018-04-24T01:56:00.235Z,64.27
2018-04-24T01:58:27.758Z,64.62
2018-04-24T02:00:55.358Z,63.79
2018-04-24T02:03:22.884Z,64.13
2018-04-24T02:05:50.481Z,63.81
2018-04-24T02:08:18.007Z,63.94
2018-04-24T02:10:45.550Z,63.99
2018-04-24T02:13:13.097Z,65.16
2018-04-24T02:15:40.617Z,64.62
2018-04-24T02:18:08.144Z,64.70
2018-04-24T02:20:35.736Z,66.01
2018-04-24T02:23:26.768Z,64.83
2018-04-24T02:25:54.288Z,66.81
2018-04-24T02:28:21.804Z,65.08
2018-04-24T02:30:49.325Z,65.56
2018-04-24T02:33:16.854Z,65.83
2018-04-24T02:35:44.380Z,64.97
2018-04-24T02:38:11.903Z,65.79
2018-04-24T02:40:39.428Z,66.43
2018-04-24T02:43:07.007Z,65.32
2018-04-24T02:45:34.578Z,65.31
2018-04-24T02:48:02.117Z,65.48
2018-04-24T02:50:29.703Z,66.78
2018-04-24T02:52:57.235Z,66.02
2018-04-24T02:55:24.744Z,68.00
2018-04-24T02:57:52.377Z,66.21
2018-04-24T03:00:19.930Z,66.27
2018-04-24T03:02:47.461Z,67.69
2018-04-24T03:05:15.028Z,66.71
2018-04-24T03:07:42.550Z,66.63
2018-04-24T03:10:10.074Z,66.79
2018-04-24T03:12:37.608Z,67.44
2018-04-24T03:15:05.197Z,67.29
2018-04-24T03:17:32.712Z,72.03
2018-04-24T03:20:00.249Z,69.25
2018-04-24T03:22:27.776Z,71.06
2018-04-24T03:24:55.307Z,68.68
2018-04-24T03:27:22.894Z,68.56
2018-04-24T03:29:50.456Z,68.99
2018-04-24T03:32:18.016Z,69.04
2018-04-24T03:34:45.539Z,69.38
2018-04-24T03:37:13.123Z,69.10
2018-04-24T03:39:40.665Z,69.23
2018-04-24T03:42:08.212Z,70.81
2018-04-24T03:44:35.727Z,69.72
2018-04-24T03:47:03.245Z,69.07
2018-04-24T03:49:30.763Z,69.46
2018-04-24T03:51:58.292Z,68.08
2018-04-24T03:54:25.809Z,69.23
2018-04-24T03:56:53.339Z,69.50
2018-04-24T04:02:03.478Z,69.27
2018-04-24T04:04:31.042Z,69.16
2018-04-24T04:06:58.603Z,69.76
2018-04-24T04:09:26.128Z,69.25
2018-04-24T04:11:53.820Z,69.38
2018-04-24T04:14:21.339Z,69.51
2018-04-24T04:16:51.285Z,69.55
2018-04-24T04:19:30.843Z,69.80
2018-04-24T04:22:10.177Z,69.84
2018-04-24T04:24:53.278Z,70.53
2018-04-24T04:27:20.872Z,70.21
2018-04-24T04:29:48.418Z,69.83
2018-04-24T04:32:15.942Z,69.85
2018-04-24T04:34:43.526Z,72.91
2018-04-24T04:37:11.045Z,71.85
2018-04-24T04:39:38.568Z,70.40
2018-04-24T04:42:06.114Z,72.70
2018-04-24T04:44:33.646Z,70.39
2018-04-24T04:47:01.240Z,71.06
2018-04-24T04:49:28.753Z,70.23
2018-04-24T04:51:56.295Z,70.35
2018-04-24T04:54:23.921Z,71.03
2018-04-24T04:56:51.439Z,70.15
2018-04-24T04:59:19.042Z,71.71
2018-04-24T05:01:46.570Z,72.22
2018-04-24T05:04:14.162Z,70.39
2018-04-24T05:06:41.723Z,70.62
2018-04-24T05:09:09.253Z,70.28
2018-04-24T05:11:36.777Z,71.03
2018-04-24T05:14:04.300Z,70.80
2018-04-24T05:16:31.854Z,70.02
2018-04-24T05:18:59.423Z,70.71
2018-04-24T05:21:26.958Z,70.24
2018-04-24T05:23:54.478Z,69.87
2018-04-24T05:26:21.996Z,69.59
2018-04-24T05:28:49.557Z,69.52
2018-04-24T05:31:17.118Z,69.83
2018-04-24T05:33:44.634Z,68.94
2018-04-24T05:36:12.177Z,69.15
2018-04-24T05:38:39.736Z,70.36
2018-04-24T05:41:07.356Z,69.51
2018-04-24T05:43:34.881Z,68.63
2018-04-24T05:46:02.404Z,68.92
2018-04-24T05:48:29.935Z,68.98
2018-04-24T05:50:57.450Z,68.91
2018-04-24T05:53:25.568Z,68.57
2018-04-24T05:55:53.089Z,68.89
2018-04-24T05:58:20.610Z,69.13
2018-04-24T06:00:48.267Z,68.89
2018-04-24T06:03:15.909Z,68.87
2018-04-24T06:05:43.468Z,68.98
2018-04-24T06:08:10.996Z,68.68
2018-04-24T06:10:38.537Z,68.53
2018-04-24T06:13:06.060Z,68.43
2018-04-24T06:15:33.604Z,67.81
2018-04-24T06:18:01.123Z,68.16
2018-04-24T06:20:28.813Z,68.58
2018-04-24T06:22:56.349Z,68.33
2018-04-24T06:25:23.886Z,68.37
2018-04-24T06:27:51.439Z,68.22
2018-04-24T06:30:18.961Z,68.24
2018-04-24T06:32:46.534Z,67.56
2018-04-24T06:35:14.067Z,67.33
2018-04-24T06:37:41.645Z,67.31
2018-04-24T06:40:09.181Z,67.53
2018-04-24T06:42:36.700Z,67.13
2018-04-24T06:45:04.333Z,66.41
2018-04-24T06:47:31.983Z,66.83
2018-04-24T06:49:59.517Z,66.79
2018-04-24T06:52:27.104Z,65.07
2018-04-24T06:54:54.721Z,66.08
2018-04-24T06:57:22.215Z,64.73
2018-04-24T06:59:49.803Z,63.04
2018-04-24T07:02:17.447Z,62.33
2018-04-24T07:04:45.007Z,62.49
2018-04-24T07:07:12.555Z,59.48
2018-04-24T07:09:40.071Z,58.30
2018-04-24T07:12:07.592Z,60.23
2018-04-24T07:14:35.147Z,57.39
2018-04-24T07:17:02.675Z,60.31
2018-04-24T07:19:30.210Z,57.89
2018-04-24T07:21:57.764Z,60.43
2018-04-24T07:24:25.403Z,54.38
2018-04-24T07:26:53.046Z,57.79
2018-04-24T07:29:20.594Z,53.76
2018-04-24T07:31:48.169Z,58.26
2018-04-24T07:34:15.704Z,53.35
2018-04-24T07:36:43.224Z,52.41
2018-04-24T07:39:10.797Z,52.01
2018-04-24T07:41:38.391Z,54.76
2018-04-24T07:44:05.923Z,51.69
2018-04-24T07:46:33.539Z,50.96
2018-04-24T07:49:01.063Z,53.28
2018-04-24T07:51:28.588Z,53.34
2018-04-24T07:53:56.313Z,50.15
2018-04-24T07:56:23.850Z,49.29
2018-04-24T07:58:51.405Z,50.85
2018-04-24T08:01:18.932Z,51.75
2018-04-24T08:03:46.479Z,50.79
2018-04-24T08:06:14.099Z,50.57
2018-04-24T08:08:41.630Z,49.10
2018-04-24T08:11:09.230Z,49.06
2018-04-24T08:13:36.794Z,50.53
2018-04-24T08:16:04.356Z,48.29
2018-04-24T08:18:31.888Z,47.41
2018-04-24T08:20:59.426Z,47.09
2018-04-24T08:23:26.956Z,49.67
2018-04-24T08:25:54.573Z,47.51
2018-04-24T08:28:22.149Z,47.71
2018-04-24T08:30:49.919Z,44.96
2018-04-24T08:33:17.479Z,48.68
2018-04-24T08:35:45.008Z,47.12
2018-04-24T08:38:12.564Z,44.64
2018-04-24T08:40:40.134Z,45.90
2018-04-24T08:43:07.663Z,45.14
2018-04-24T08:45:35.183Z,41.52
2018-04-24T08:48:02.719Z,39.49
2018-04-24T08:50:30.254Z,42.13
2018-04-24T08:52:57.786Z,42.04
2018-04-24T08:55:25.314Z,40.76
2018-04-24T08:57:52.827Z,41.96
2018-04-24T09:00:20.364Z,42.87
2018-04-24T09:02:47.881Z,43.64
2018-04-24T09:05:15.417Z,43.48
2018-04-24T09:07:42.951Z,42.49
2018-04-24T09:10:10.508Z,40.38
2018-04-24T09:12:38.133Z,40.74
2018-04-24T09:15:05.659Z,40.79
2018-04-24T09:17:33.186Z,39.61
2018-04-24T09:20:00.915Z,39.47
2018-04-24T09:22:28.441Z,39.34
2018-04-24T09:24:55.964Z,40.49
2018-04-24T09:27:23.486Z,40.12
2018-04-24T09:29:56.720Z,39.63
2018-04-24T09:32:24.261Z,40.92
2018-04-24T09:34:51.785Z,40.79
2018-04-24T09:37:19.300Z,41.60
2018-04-24T09:39:46.822Z,42.41
2018-04-24T09:42:14.335Z,41.83
2018-04-24T09:44:41.863Z,40.78
2018-04-24T09:47:09.379Z,42.42
2018-04-24T09:49:36.935Z,42.44
2018-04-24T09:52:04.440Z,42.46
2018-04-24T09:54:31.968Z,42.22
2018-04-24T09:56:59.509Z,42.96
2018-04-24T09:59:27.021Z,41.47
2018-04-24T10:01:54.546Z,41.00
2018-04-24T10:04:22.067Z,40.83
2018-04-24T10:06:49.607Z,40.66
2018-04-24T10:09:17.143Z,41.91
2018-04-24T10:11:44.787Z,42.04
2018-04-24T10:14:12.435Z,43.20
2018-04-24T10:16:39.947Z,43.05
2018-04-24T10:19:07.576Z,43.50
2018-04-24T10:21:35.116Z,42.36
2018-04-24T10:24:02.649Z,43.32
2018-04-24T10:26:30.258Z,43.69
2018-04-24T10:28:57.797Z,44.01
2018-04-24T10:31:25.373Z,43.69
2018-04-24T10:33:52.901Z,44.43
2018-04-24T10:36:20.424Z,44.94
2018-04-24T10:38:47.951Z,45.20
2018-04-24T10:41:15.511Z,43.74
2018-04-24T10:43:43.050Z,44.44
2018-04-24T10:46:10.563Z,44.44
2018-04-24T10:48:38.073Z,44.52
2018-04-24T10:51:05.589Z,44.42
2018-04-24T10:53:33.111Z,44.68
2018-04-24T10:56:00.703Z,44.95
2018-04-24T10:58:28.210Z,45.53
2018-04-24T11:00:55.783Z,46.24
2018-04-24T11:03:23.313Z,45.95
2018-04-24T11:05:50.835Z,46.06
2018-04-24T11:08:18.524Z,46.06
2018-04-24T11:10:46.096Z,46.82
2018-04-24T11:13:13.688Z,47.09
2018-04-24T11:15:41.275Z,46.38
2018-04-24T11:18:08.910Z,48.36
2018-04-24T11:20:36.471Z,47.56
2018-04-24T11:23:03.998Z,50.52
2018-04-24T11:25:31.527Z,49.97
2018-04-24T11:27:59.060Z,50.96
2018-04-24T11:30:26.711Z,49.87
2018-04-24T11:32:54.236Z,49.37
2018-04-24T11:35:21.825Z,50.05
2018-04-24T11:37:49.391Z,51.60
2018-04-24T11:40:16.920Z,51.35
2018-04-24T11:42:44.468Z,50.04
2018-04-24T11:45:12.079Z,51.22
2018-04-24T11:47:39.672Z,51.32
2018-04-24T11:50:07.193Z,51.75
2018-04-24T11:52:34.718Z,50.58
2018-04-24T11:55:02.244Z,51.09
2018-04-24T11:57:29.769Z,50.99
2018-04-24T11:59:57.324Z,50.39
2018-04-24T12:02:24.881Z,51.10
2018-04-24T12:04:52.405Z,50.62
2018-04-24T12:07:19.944Z,51.38
2018-04-24T12:09:47.494Z,50.97
2018-04-24T12:12:15.026Z,50.51
2018-04-24T12:14:42.556Z,51.51
2018-04-24T12:17:10.079Z,51.16
2018-04-24T12:19:37.606Z,51.61
2018-04-24T12:22:05.123Z,51.33
2018-04-24T12:24:32.752Z,52.08
2018-04-24T12:27:00.248Z,51.21
2018-04-24T12:29:27.845Z,49.64
2018-04-24T12:31:55.367Z,49.47
2018-04-24T12:34:22.929Z,50.07
2018-04-24T12:36:50.835Z,49.88
2018-04-24T12:39:18.493Z,50.13
2018-04-24T12:41:46.008Z,50.24
2018-04-24T12:44:13.638Z,50.40
2018-04-24T12:46:41.278Z,51.95
2018-04-24T12:49:09.355Z,53.38
2018-04-24T12:51:36.929Z,53.86
2018-04-24T12:54:04.466Z,54.11
2018-04-24T12:56:31.994Z,53.82
2018-04-24T12:58:59.595Z,53.09
2018-04-24T13:01:27.248Z,53.62
2018-04-24T13:03:54.847Z,54.61
2018-04-24T13:06:22.328Z,52.98
2018-04-24T13:08:49.886Z,53.29
2018-04-24T13:11:17.413Z,54.02
2018-04-24T13:13:44.946Z,54.89
2018-04-24T13:16:12.472Z,54.42
2018-04-24T13:18:40.002Z,54.72
2018-04-24T13:21:07.520Z,55.43
2018-04-24T13:23:35.036Z,56.33
2018-04-24T13:26:02.645Z,56.79
2018-04-24T13:28:30.201Z,58.11
2018-04-24T13:30:57.737Z,55.96
2018-04-24T13:33:25.251Z,57.61
2018-04-24T13:35:52.782Z,58.92
2018-04-24T13:38:20.308Z,59.39
2018-04-24T13:40:47.836Z,57.25
2018-04-24T13:43:15.638Z,58.35
2018-04-24T13:45:43.109Z,61.59
2018-04-24T13:48:10.623Z,57.87
2018-04-24T13:50:38.140Z,61.91
2018-04-24T13:53:05.667Z,61.25
2018-04-24T13:55:33.180Z,59.21
2018-04-24T13:58:00.824Z,58.63
2018-04-24T14:00:28.368Z,61.74
2018-04-24T14:02:55.896Z,62.43
2018-04-24T14:05:23.413Z,62.70
2018-04-24T14:07:50.923Z,59.93
2018-04-24T14:10:18.455Z,61.15
2018-04-24T14:12:45.977Z,60.02
2018-04-24T14:15:13.491Z,61.31
2018-04-24T14:17:41.028Z,59.95
2018-04-24T14:20:08.540Z,61.30
2018-04-24T14:22:36.052Z,60.12
2018-04-24T14:25:03.607Z,59.83
2018-04-24T14:27:31.132Z,59.48
2018-04-24T14:29:58.656Z,59.70
2018-04-24T14:32:26.174Z,61.31
2018-04-24T14:34:53.685Z,59.87
2018-04-24T14:37:21.197Z,60.34
2018-04-24T14:39:48.716Z,58.67
2018-04-24T14:42:22.234Z,58.76
2018-04-24T14:44:49.761Z,59.37
2018-04-24T14:47:17.275Z,59.56
2018-04-24T14:49:44.808Z,60.07
2018-04-24T14:52:12.329Z,59.90
2018-04-24T14:54:39.893Z,60.31
2018-04-24T14:57:07.412Z,58.94
2018-04-24T14:59:34.944Z,59.29
2018-04-24T15:02:02.478Z,59.76
2018-04-24T15:04:30.008Z,60.55
2018-04-24T15:06:57.544Z,61.94
2018-04-24T15:09:25.075Z,58.92
2018-04-24T15:11:52.606Z,61.01
2018-04-24T15:14:20.125Z,59.56
2018-04-24T15:16:47.646Z,59.68
2018-04-24T15:19:15.173Z,60.05
2018-04-24T15:21:42.777Z,60.23
2018-04-24T15:24:10.292Z,59.13
2018-04-24T15:26:37.979Z,61.84
2018-04-24T15:29:05.515Z,62.39
2018-04-24T15:31:33.107Z,62.84
2018-04-24T15:34:00.681Z,60.87
2018-04-24T15:36:28.258Z,61.86
2018-04-24T15:38:55.782Z,62.15
2018-04-24T15:41:23.296Z,62.81
2018-04-24T15:43:50.913Z,62.52
2018-04-24T15:46:18.428Z,60.93
2018-04-24T15:48:45.961Z,60.67
2018-04-24T15:51:13.608Z,60.80
2018-04-24T15:53:41.157Z,61.29
2018-04-24T15:56:08.679Z,62.18
2018-04-24T15:58:36.198Z,62.17
2018-04-24T16:01:03.718Z,62.72
2018-04-24T16:03:31.244Z,61.28
2018-04-24T16:05:58.773Z,63.06
2018-04-24T16:08:26.417Z,61.23
2018-04-24T16:10:53.960Z,62.35
2018-04-24T16:13:21.528Z,61.15
2018-04-24T16:15:49.051Z,62.90
2018-04-24T16:18:16.649Z,61.43
2018-04-24T16:20:44.167Z,62.95
2018-04-24T16:23:11.773Z,62.09
2018-04-24T16:25:39.304Z,62.81
2018-04-24T16:28:06.894Z,62.54
2018-04-24T16:30:34.449Z,61.76
2018-04-24T16:33:02.009Z,64.42
2018-04-24T16:35:29.528Z,63.20
2018-04-24T16:37:57.050Z,62.01
2018-04-24T16:40:24.586Z,62.75
2018-04-24T16:42:52.099Z,61.49
2018-04-24T16:45:19.647Z,62.97
2018-04-24T16:47:47.203Z,62.83
2018-04-24T16:50:14.729Z,63.31
2018-04-24T16:52:42.269Z,63.26
2018-04-24T16:55:09.789Z,62.54
2018-04-24T16:57:37.308Z,61.31
2018-04-24T17:00:04.827Z,62.21
2018-04-24T17:02:32.347Z,61.64
2018-04-24T17:04:59.869Z,62.68
2018-04-24T17:07:27.468Z,62.35
2018-04-24T17:09:55.136Z,62.16
2018-04-24T17:12:22.691Z,62.27
2018-04-24T17:14:50.328Z,61.79
2018-04-24T17:17:17.874Z,61.89
2018-04-24T17:19:45.409Z,62.38
2018-04-24T17:22:12.964Z,61.53
2018-04-24T17:24:40.494Z,61.19
2018-04-24T17:27:08.040Z,62.51
2018-04-24T17:29:35.603Z,61.33
2018-04-24T17:32:03.150Z,62.25
2018-04-24T17:34:30.672Z,61.33
2018-04-24T17:36:58.234Z,62.59
2018-04-24T17:39:25.795Z,63.11
2018-04-24T17:41:53.335Z,61.95
2018-04-24T17:44:20.947Z,62.47
2018-04-24T17:46:48.503Z,61.86
2018-04-24T17:49:16.033Z,62.19
2018-04-24T17:51:43.567Z,61.97
2018-04-24T17:54:11.186Z,61.78
2018-04-24T17:56:38.721Z,63.29
2018-04-24T17:59:06.275Z,62.30
2018-04-24T18:01:33.841Z,63.06
2018-04-24T18:04:01.376Z,63.84
2018-04-24T18:06:28.986Z,62.75
2018-04-24T18:08:56.542Z,62.36
2018-04-24T18:11:24.171Z,63.23
2018-04-24T18:13:51.697Z,64.82
2018-04-24T18:16:19.255Z,63.39
2018-04-24T18:18:46.796Z,62.95
2018-04-24T18:21:14.334Z,63.24
2018-04-24T18:23:41.855Z,63.18
2018-04-24T18:26:09.392Z,64.04
2018-04-24T18:28:36.934Z,64.14
2018-04-24T18:31:04.455Z,63.07
2018-04-24T18:33:32.046Z,63.66
2018-04-24T18:35:59.617Z,64.51
2018-04-24T18:38:27.177Z,63.85
2018-04-24T18:40:54.875Z,63.38
2018-04-24T18:43:22.504Z,64.42
2018-04-24T18:45:50.037Z,63.19
2018-04-24T18:48:17.562Z,63.46
2018-04-24T18:50:45.096Z,64.37
2018-04-24T18:53:12.705Z,62.90
2018-04-24T18:55:40.168Z,64.67
2018-04-24T18:58:07.740Z,63.29
2018-04-24T19:00:35.267Z,63.35
2018-04-24T19:03:02.806Z,63.13
2018-04-24T19:05:30.361Z,64.68
2018-04-24T19:07:57.983Z,64.65
2018-04-24T19:10:25.539Z,63.60
2018-04-24T19:12:53.074Z,63.12
2018-04-24T19:15:20.591Z,63.51
2018-04-24T19:17:48.133Z,63.08
2018-04-24T19:20:15.667Z,63.46
2018-04-24T19:22:43.221Z,65.04
2018-04-24T19:25:16.301Z,63.40
2018-04-24T19:27:43.818Z,64.20
2018-04-24T19:30:11.433Z,63.63
2018-04-24T19:32:38.955Z,63.73
2018-04-24T19:35:06.475Z,63.82
2018-04-24T19:37:34.024Z,63.71
2018-04-24T19:40:07.159Z,63.78
2018-04-24T19:42:34.684Z,64.30
2018-04-24T19:45:02.219Z,64.19
2018-04-24T19:47:29.782Z,65.10
2018-04-24T19:50:03.030Z,64.12
2018-04-24T19:52:30.555Z,63.96
2018-04-24T19:55:03.674Z,64.82
2018-04-24T19:57:31.204Z,64.90
2018-04-24T19:59:58.736Z,64.66
2018-04-24T20:02:26.291Z,64.80
2018-04-24T20:04:53.843Z,64.62
2018-04-24T20:07:21.388Z,64.59
2018-04-24T20:09:48.936Z,65.48
2018-04-24T20:12:16.496Z,65.08
2018-04-24T20:14:44.025Z,65.27
2018-04-24T20:17:11.543Z,64.96
2018-04-24T20:19:39.066Z,65.15
2018-04-24T20:22:06.601Z,65.37
2018-04-24T20:24:34.224Z,64.70
2018-04-24T20:27:01.820Z,67.01
2018-04-24T20:29:29.339Z,65.93
2018-04-24T20:31:57.131Z,65.86
2018-04-24T20:34:24.656Z,66.16
2018-04-24T20:36:52.191Z,66.47
2018-04-24T20:39:19.823Z,66.67
2018-04-24T20:41:47.359Z,65.59
2018-04-24T20:44:14.877Z,65.61
2018-04-24T20:46:42.414Z,65.05
2018-04-24T20:49:09.964Z,65.47
2018-04-24T20:51:37.500Z,65.42
2018-04-24T20:54:05.016Z,65.37
2018-04-24T20:56:32.542Z,67.64
2018-04-24T20:59:00.069Z,67.63
2018-04-24T21:01:27.584Z,67.07
2018-04-24T21:03:55.119Z,66.53
2018-04-24T21:06:22.644Z,66.88
2018-04-24T21:08:50.168Z,67.54
2018-04-24T21:11:17.692Z,67.04
2018-04-24T21:13:45.224Z,66.58
2018-04-24T21:16:12.813Z,66.38
2018-04-24T21:18:40.340Z,67.68
2018-04-24T21:21:07.901Z,66.40
2018-04-24T21:23:35.460Z,66.44
2018-04-24T21:26:03.122Z,66.38
2018-04-24T21:28:30.714Z,66.49
2018-04-24T21:30:58.237Z,66.03
2018-04-24T21:33:25.760Z,67.19
2018-04-24T21:35:53.397Z,66.72
2018-04-24T21:38:20.925Z,67.46
2018-04-24T21:40:48.479Z,67.36
2018-04-24T21:43:16.077Z,67.19
2018-04-24T21:45:43.600Z,67.56
2018-04-24T21:48:11.200Z,67.27
2018-04-24T21:50:38.720Z,68.10
2018-04-24T21:53:06.280Z,67.54
2018-04-24T21:55:33.797Z,67.75
2018-04-24T21:58:01.333Z,68.54
2018-04-24T22:00:28.856Z,67.42
2018-04-24T22:02:56.421Z,67.08
2018-04-24T22:05:23.937Z,67.38
2018-04-24T22:07:51.678Z,67.61
2018-04-24T22:10:19.200Z,67.39
2018-04-24T22:12:46.794Z,67.36
2018-04-24T22:15:14.359Z,67.33
2018-04-24T22:17:42.011Z,67.18
2018-04-24T22:20:09.543Z,67.36
2018-04-24T22:22:37.060Z,67.41
2018-04-24T22:25:04.679Z,67.66
2018-04-24T22:27:32.196Z,66.94
2018-04-24T22:29:59.747Z,68.00
2018-04-24T22:32:27.313Z,66.99
2018-04-24T22:34:54.855Z,67.58
2018-04-24T22:37:22.495Z,68.69
2018-04-24T22:39:50.020Z,67.47
2018-04-24T22:42:17.553Z,69.76
2018-04-24T22:44:45.091Z,68.53
2018-04-24T22:47:12.733Z,68.48
2018-04-24T22:49:40.293Z,69.09
2018-04-24T22:52:07.856Z,70.49
2018-04-24T22:54:35.380Z,68.43
2018-04-24T22:57:02.978Z,68.77
2018-04-24T22:59:30.502Z,69.40
2018-04-24T23:01:58.028Z,69.21
2018-04-24T23:04:25.556Z,69.70
2018-04-24T23:06:53.084Z,69.67
2018-04-24T23:09:20.624Z,70.99
2018-04-24T23:11:59.906Z,70.26
2018-04-24T23:14:39.375Z,70.31
2018-04-24T23:17:18.993Z,69.69
2018-04-24T23:19:58.431Z,69.79
2018-04-24T23:22:30.519Z,70.48
2018-04-24T23:24:58.154Z,71.17
2018-04-24T23:27:25.680Z,72.54
2018-04-24T23:29:53.205Z,73.95
2018-04-24T23:32:20.731Z,73.42
2018-04-24T23:34:48.254Z,71.86
2018-04-24T23:37:15.785Z,74.18
2018-04-24T23:39:43.308Z,75.61
2018-04-24T23:42:10.835Z,73.59
2018-04-24T23:44:38.356Z,73.68
2018-04-24T23:47:05.890Z,73.77
2018-04-24T23:49:33.418Z,74.60
2018-04-24T23:52:00.938Z,74.79
2018-04-24T23:54:28.489Z,75.37
2018-04-24T23:56:56.023Z,74.11
2018-04-24T23:59:23.553Z,74.44
